createdAt,value
2018-12-09T00:04:32.950Z,1.27
2018-12-09T00:09:39.536Z,1.33
2018-12-09T00:14:44.103Z,1.50
2018-12-09T00:19:48.880Z,1.17
2018-12-09T00:24:53.368Z,1.43
2018-12-09T00:29:57.964Z,1.27
2018-12-09T00:35:02.415Z,1.40
2018-12-09T00:40:07.621Z,1.10
2018-12-09T00:45:15.399Z,1.10
2018-12-09T00:50:21.162Z,1.30
2018-12-09T00:55:25.610Z,1.30
2018-12-09T01:00:30.571Z,1.20
2018-12-09T01:05:35.464Z,1.03
2018-12-09T01:10:40.008Z,1.00
2018-12-09T01:15:44.511Z,1.10
2018-12-09T01:20:49.399Z,1.07
2018-12-09T01:25:53.763Z,1.00
2018-12-09T01:30:58.273Z,0.93
2018-12-09T01:36:03.225Z,1.10
2018-12-09T01:41:08.505Z,0.80
2018-12-09T01:46:16.229Z,0.90
2018-12-09T01:51:21.511Z,0.97
2018-12-09T01:56:26.063Z,0.80
2018-12-09T02:01:31.010Z,0.60
2018-12-09T02:06:35.940Z,0.70
2018-12-09T02:11:40.412Z,0.67
2018-12-09T02:16:45.828Z,0.70
2018-12-09T02:21:51.042Z,0.60
2018-12-09T02:26:56.513Z,0.83
2018-12-09T02:32:01.060Z,0.77
2018-12-09T02:37:05.575Z,0.87
2018-12-09T02:42:10.771Z,0.80
2018-12-09T02:59:23.697Z,0.80
2018-12-09T03:04:28.616Z,1.00
2018-12-09T03:09:33.548Z,0.90
2018-12-09T03:14:38.472Z,0.90
2018-12-09T03:19:43.369Z,0.80
2018-12-09T03:24:47.637Z,0.80
2018-12-09T03:29:52.204Z,0.70
2018-12-09T03:34:57.072Z,0.77
2018-12-09T03:40:02.000Z,0.63
2018-12-09T03:45:07.497Z,0.80
2018-12-09T03:50:12.614Z,0.60
2018-12-09T03:55:17.527Z,0.70
2018-12-09T04:00:21.709Z,0.60
2018-12-09T04:05:26.251Z,0.80
2018-12-09T04:10:31.235Z,0.80
2018-12-09T04:15:42.804Z,0.83
2018-12-09T04:20:50.231Z,0.70
2018-12-09T04:25:54.324Z,0.80
2018-12-09T04:30:58.853Z,0.80
2018-12-09T04:36:03.357Z,0.90
2018-12-09T04:41:08.038Z,1.00
2018-12-09T04:46:13.079Z,0.70
2018-12-09T04:51:18.461Z,0.63
2018-12-09T05:03:15.363Z,0.87
2018-12-09T05:08:20.812Z,0.90
2018-12-09T05:13:29.944Z,0.90
2018-12-09T05:18:34.468Z,1.00
2018-12-09T05:23:38.933Z,1.10
2018-12-09T05:28:43.436Z,0.90
2018-12-09T05:33:47.605Z,1.07
2018-12-09T05:38:52.210Z,1.40
2018-12-09T05:43:56.876Z,1.00
2018-12-09T05:49:00.988Z,1.00
2018-12-09T05:54:05.952Z,0.80
2018-12-09T05:59:11.065Z,0.90
2018-12-09T06:27:51.467Z,0.90
2018-12-09T06:32:56.337Z,0.87
2018-12-09T06:38:00.907Z,1.10
2018-12-09T06:43:05.915Z,1.00
2018-12-09T06:48:10.084Z,0.93
2018-12-09T06:53:15.519Z,1.02
2018-12-09T06:58:19.905Z,0.80
2018-12-09T07:03:24.608Z,0.82
2018-12-09T07:08:28.713Z,1.27
2018-12-09T07:13:33.266Z,1.00
2018-12-09T07:18:37.469Z,1.07
2018-12-09T07:23:42.460Z,1.10
2018-12-09T07:41:21.148Z,1.20
2018-12-09T07:46:25.850Z,1.00
2018-12-09T07:51:30.616Z,1.50
2018-12-09T07:56:35.191Z,1.10
2018-12-09T08:01:39.956Z,1.60
2018-12-09T08:06:44.069Z,1.23
2018-12-09T08:11:48.862Z,1.40
2018-12-09T08:16:53.340Z,1.50
2018-12-09T08:21:58.273Z,1.30
2018-12-09T08:27:03.322Z,1.67
2018-12-09T08:32:07.966Z,1.53
2018-12-09T08:37:12.463Z,1.13
2018-12-09T09:00:55.994Z,1.03
2018-12-09T09:06:00.507Z,0.90
2018-12-09T09:11:05.176Z,0.60
2018-12-09T09:16:10.584Z,0.63
2018-12-09T09:21:15.089Z,0.80
2018-12-09T09:26:19.191Z,0.90
2018-12-09T09:31:23.559Z,0.87
2018-12-09T09:36:28.485Z,0.60
2018-12-09T09:41:32.964Z,0.87
2018-12-09T09:46:37.842Z,0.80
2018-12-09T09:51:42.842Z,1.10
2018-12-09T09:56:47.357Z,1.00
2018-12-09T10:08:29.408Z,1.10
2018-12-09T10:13:42.319Z,0.80
2018-12-09T10:18:47.260Z,0.60
2018-12-09T10:23:52.264Z,0.80
2018-12-09T10:28:56.964Z,0.70
2018-12-09T10:34:01.915Z,0.80
2018-12-09T10:39:08.016Z,0.80
2018-12-09T10:44:12.269Z,0.87
2018-12-09T10:49:16.731Z,1.00
2018-12-09T10:54:21.922Z,0.90
2018-12-09T10:59:26.121Z,0.90
2018-12-09T11:04:32.542Z,1.00
2018-12-09T11:22:49.282Z,0.93
2018-12-09T11:27:53.889Z,1.03
2018-12-09T11:32:58.128Z,0.87
2018-12-09T11:38:03.063Z,0.80
2018-12-09T11:43:07.580Z,1.03
2018-12-09T11:48:12.085Z,1.00
2018-12-09T11:53:17.560Z,0.93
2018-12-09T11:58:22.347Z,0.80
2018-12-09T12:03:27.399Z,0.90
2018-12-09T12:08:32.291Z,0.90
2018-12-09T12:13:36.953Z,1.00
2018-12-09T12:18:41.849Z,1.10
2018-12-09T12:23:49.365Z,1.23
2018-12-09T12:28:54.613Z,1.27
2018-12-09T12:33:59.622Z,1.20
2018-12-09T12:39:06.939Z,1.30
2018-12-09T12:44:11.721Z,1.10
2018-12-09T12:49:16.688Z,1.30
2018-12-09T12:54:21.126Z,1.00
2018-12-09T12:59:25.940Z,0.80
2018-12-09T13:04:30.153Z,1.00
2018-12-09T13:09:35.191Z,0.97
2018-12-09T13:14:39.798Z,0.90
2018-12-09T13:19:44.226Z,0.70
2018-12-09T13:24:48.994Z,1.00
2018-12-09T13:29:53.936Z,0.83
2018-12-09T13:34:58.824Z,0.90
2018-12-09T13:40:04.492Z,0.93
2018-12-09T13:45:09.690Z,1.17
2018-12-09T13:50:15.204Z,1.00
2018-12-09T13:55:20.547Z,1.00
2018-12-09T14:00:25.441Z,1.00
2018-12-09T14:05:32.222Z,1.13
2018-12-09T14:10:36.822Z,0.80
2018-12-09T14:15:41.306Z,1.17
2018-12-09T14:20:45.957Z,1.07
2018-12-09T14:25:50.070Z,1.27
2018-12-09T14:30:54.819Z,1.30
2018-12-09T14:35:59.693Z,1.40
2018-12-09T14:41:05.265Z,1.47
2018-12-09T14:46:09.783Z,1.07
2018-12-09T14:51:14.541Z,1.22
2018-12-09T14:56:19.008Z,1.70
2018-12-09T15:01:24.504Z,1.40
2018-12-09T15:06:29.093Z,1.03
2018-12-09T15:11:33.583Z,1.30
2018-12-09T15:16:38.490Z,1.50
2018-12-09T15:21:42.989Z,1.53
2018-12-09T15:38:51.931Z,1.33
2018-12-09T15:43:56.376Z,1.20
2018-12-09T15:49:01.320Z,1.23
2018-12-09T15:54:06.932Z,1.10
2018-12-09T15:59:11.838Z,1.80
2018-12-09T16:04:16.934Z,1.37
2018-12-09T16:09:22.092Z,1.27
2018-12-09T16:14:27.314Z,1.40
2018-12-09T16:19:31.531Z,1.83
2018-12-09T16:24:35.679Z,1.50
2018-12-09T16:29:39.875Z,1.37
2018-12-09T16:35:08.859Z,1.47
2018-12-09T16:40:13.767Z,1.33
2018-12-09T16:45:18.248Z,1.40
2018-12-09T16:55:30.813Z,1.50
2018-12-09T17:00:35.762Z,1.80
2018-12-09T17:05:40.409Z,1.20
2018-12-09T17:10:44.582Z,1.73
2018-12-09T17:15:49.144Z,1.30
2018-12-09T17:20:54.338Z,0.90
2018-12-09T17:25:58.454Z,1.20
2018-12-09T17:31:02.963Z,1.20
2018-12-09T17:36:07.417Z,1.00
2018-12-09T17:41:11.820Z,1.00
2018-12-09T17:46:16.331Z,1.20
2018-12-09T17:51:21.627Z,1.07
2018-12-09T17:56:26.128Z,1.10
2018-12-09T18:01:30.675Z,0.90
2018-12-09T18:06:35.587Z,1.30
2018-12-09T18:11:40.542Z,1.00
2018-12-09T18:16:45.098Z,1.20
2018-12-09T18:21:50.043Z,1.03
2018-12-09T18:26:55.125Z,1.27
2018-12-09T18:31:59.797Z,1.27
2018-12-09T18:37:05.231Z,1.12
2018-12-09T18:42:09.784Z,1.17
2018-12-09T18:47:14.634Z,0.93
2018-12-09T18:52:22.429Z,1.13
2018-12-09T18:57:26.615Z,1.20
2018-12-09T19:02:30.803Z,1.00
2018-12-09T19:07:35.774Z,1.17
2018-12-09T19:12:40.382Z,1.20
2018-12-09T19:17:45.572Z,1.57
2018-12-09T19:22:50.080Z,1.07
2018-12-09T19:27:54.612Z,1.70
2018-12-09T19:32:59.115Z,1.40
2018-12-09T19:38:04.398Z,1.80
2018-12-09T19:43:09.192Z,1.70
2018-12-09T19:48:14.377Z,1.63
2018-12-09T19:53:20.530Z,1.60
2018-12-09T19:58:32.208Z,1.67
2018-12-09T20:03:36.521Z,2.00
2018-12-09T20:08:41.470Z,1.50
2018-12-09T20:13:45.960Z,1.83
2018-12-09T20:18:50.089Z,1.60
2018-12-09T20:23:54.359Z,1.57
2018-12-09T20:28:59.108Z,1.80
2018-12-09T20:34:05.658Z,1.70
2018-12-09T20:39:10.257Z,1.40
2018-12-09T20:44:14.688Z,1.87
2018-12-09T20:49:19.477Z,1.57
2018-12-09T20:54:24.135Z,2.67
2018-12-09T20:59:56.836Z,1.70
2018-12-09T21:05:00.998Z,1.77
2018-12-09T21:10:07.283Z,1.70
2018-12-09T21:15:12.475Z,1.60
2018-12-09T21:20:17.013Z,1.30
2018-12-09T21:25:21.181Z,1.63
2018-12-09T21:30:25.423Z,1.47
2018-12-09T21:35:29.604Z,1.70
2018-12-09T21:40:34.165Z,1.50
2018-12-09T21:45:39.267Z,1.50
2018-12-09T21:50:44.495Z,1.60
2018-12-09T21:55:49.118Z,2.17
2018-12-09T22:01:06.229Z,1.83
2018-12-09T22:06:10.734Z,1.82
2018-12-09T22:11:15.256Z,1.65
2018-12-09T22:16:21.415Z,2.00
2018-12-09T22:21:26.009Z,2.00
2018-12-09T22:26:30.900Z,2.30
2018-12-09T22:31:34.997Z,1.80
2018-12-09T22:36:39.135Z,1.87
2018-12-09T22:41:44.154Z,1.57
2018-12-09T22:46:48.886Z,2.30
2018-12-09T22:51:53.416Z,1.80
2018-12-09T22:56:57.531Z,2.67
2018-12-09T23:02:11.486Z,2.10
2018-12-09T23:07:21.091Z,2.47
2018-12-09T23:12:25.960Z,1.87
2018-12-09T23:17:30.509Z,1.90
2018-12-09T23:22:34.649Z,1.60
2018-12-09T23:27:39.736Z,1.80
2018-12-09T23:32:44.247Z,1.80
2018-12-09T23:37:48.928Z,1.43
2018-12-09T23:42:53.790Z,1.57
2018-12-09T23:47:58.304Z,1.50
2018-12-09T23:53:03.244Z,1.57
2018-12-09T23:58:08.006Z,1.90
